»·PEaware :: N211WP Kmry-KSfo

N211WP :: Kmry-KSfo

FLIGHT INFORMATION

Flight Status: Arrived
Operator: Privately registered:
United States
More flights under this callsign
Pilot: Wayne M. (1794)
Aircraft: Unknown
(DA40)
More flights by this aircraft type
Origin: Kmry Monterey Peninsula
United States
Destination: KSfo San Francisco Intl
United States
More flights between these airports :: More routes between these airports
Route: sns v25 osi
File this flight plan on PilotEdge
Remarks:
Altitude:
(Current/Filed)
6,000ft
Speed:
(Current/Filed)
132kts
Departed: 08-Jan-17 01:29 PM
Arrived: 08-Jan-17 02:35 PM
Distance/Time
Traveled:
68nm/1:06
Distance/Time
To Go:
Arrived

Flight Plot

Page will automatically refresh every two minutes.


Map Options




Map Legend


Flown Route
Filed Route
Departure Airport
Arrival Airport
Navaid (VOR, NDB)
Fix

Horizontal Profiles

Position Reports

Time Latitude Longitude Heading Altitude Ground
Speed
08-Jan-17 13:16 36.591878 -121.849869 252 151ft 0kts
08-Jan-17 13:17 36.591878 -121.849869 252 151ft 0kts
08-Jan-17 13:18 36.591878 -121.849869 252 151ft 0kts
08-Jan-17 13:19 36.591878 -121.849869 252 151ft 0kts
08-Jan-17 13:20 36.591878 -121.849869 252 151ft 0kts
08-Jan-17 13:21 36.591878 -121.849869 252 151ft 0kts
08-Jan-17 13:22 36.591878 -121.849869 252 151ft 0kts
08-Jan-17 13:23 36.591878 -121.849869 252 151ft 0kts
08-Jan-17 13:24 36.591878 -121.849869 252 151ft 0kts
08-Jan-17 13:25 34.432569 -119.835096 71 14ft 0kts
08-Jan-17 13:26 34.432569 -119.835096 71 14ft 0kts
08-Jan-17 13:27 34.432569 -119.835096 71 14ft 0kts
08-Jan-17 13:28 34.432569 -119.835096 71 14ft 0kts
08-Jan-17 13:29 36.529370 -121.663750 300 3533ft 89kts
08-Jan-17 13:30 36.531397 -121.668073 300 3698ft 107kts
08-Jan-17 13:31 36.531397 -121.668073 300 3698ft 107kts
08-Jan-17 13:32 36.531397 -121.668073 300 3698ft 107kts
08-Jan-17 13:33 36.531397 -121.668073 300 3698ft 107kts
08-Jan-17 13:34 36.531397 -121.668073 300 3698ft 107kts
08-Jan-17 13:35 36.539932 -121.682932 309 3975ft 149kts
08-Jan-17 13:36 36.575241 -121.712661 25 4507ft 179kts
08-Jan-17 13:37 36.607218 -121.666640 43 5034ft 182kts
08-Jan-17 13:38 36.644261 -121.624783 41 5521ft 178kts
08-Jan-17 13:39 36.680071 -121.629236 312 5918ft 174kts
08-Jan-17 13:40 36.710479 -121.672525 310 6064ft 166kts
08-Jan-17 13:41 36.739602 -121.715396 309 6063ft 160kts
08-Jan-17 13:42 36.767964 -121.757453 309 6063ft 158kts
08-Jan-17 13:43 36.796082 -121.799237 310 6063ft 157kts
08-Jan-17 13:44 36.823813 -121.840509 310 6063ft 158kts
08-Jan-17 13:45 36.851967 -121.882477 310 6064ft 158kts
08-Jan-17 13:46 36.879387 -121.923418 309 6062ft 150kts
08-Jan-17 13:47 36.905905 -121.963060 309 6063ft 148kts
08-Jan-17 13:48 36.932189 -122.002392 309 6064ft 148kts
08-Jan-17 13:49 36.959518 -122.039862 336 6062ft 148kts
08-Jan-17 13:50 36.996685 -122.061155 336 6064ft 148kts
08-Jan-17 13:51 37.034048 -122.081973 336 6064ft 149kts
08-Jan-17 13:52 37.071545 -122.102752 336 6063ft 148kts
08-Jan-17 13:53 37.088178 -122.140064 272 6168ft 144kts
08-Jan-17 13:54 37.115676 -122.164463 340 6062ft 146kts
08-Jan-17 13:55 37.145291 -122.177507 341 6080ft 131kts
08-Jan-17 13:56 37.174253 -122.189868 341 6067ft 145kts
08-Jan-17 13:57 37.203676 -122.202215 341 6093ft 148kts
08-Jan-17 13:58 37.233309 -122.214597 341 6069ft 150kts
08-Jan-17 13:59 37.263038 -122.227018 341 6064ft 149kts
08-Jan-17 14:00 37.293560 -122.239399 342 6065ft 149kts
08-Jan-17 14:01 37.323916 -122.248709 353 6048ft 148kts
08-Jan-17 14:02 37.351883 -122.262225 338 6093ft 148kts
08-Jan-17 14:03 37.380161 -122.275994 338 6069ft 149kts
08-Jan-17 14:04 37.404531 -122.296780 314 6070ft 148kts
08-Jan-17 14:05 37.425602 -122.324479 313 6071ft 148kts
08-Jan-17 14:06 37.447324 -122.353038 313 6069ft 148kts
08-Jan-17 14:07 37.469267 -122.381888 314 6074ft 151kts
08-Jan-17 14:08 37.493804 -122.414147 314 6069ft 153kts
08-Jan-17 14:09 37.523324 -122.452958 314 6069ft 153kts
08-Jan-17 14:10 37.552956 -122.491777 314 6069ft 154kts
08-Jan-17 14:11 37.579731 -122.526976 314 6069ft 154kts
08-Jan-17 14:12 37.609353 -122.523824 23 6070ft 154kts
08-Jan-17 14:13 37.645864 -122.503754 23 6069ft 154kts
08-Jan-17 14:14 37.675752 -122.487315 23 6069ft 155kts
08-Jan-17 14:15 37.704292 -122.471609 23 6069ft 155kts
08-Jan-17 14:16 37.734774 -122.454822 23 6069ft 155kts
08-Jan-17 14:17 37.774209 -122.433093 23 6069ft 156kts
08-Jan-17 14:18 37.805896 -122.415622 23 6038ft 157kts
08-Jan-17 14:19 37.833681 -122.400286 23 5641ft 146kts
08-Jan-17 14:20 37.859891 -122.385815 23 5067ft 142kts
08-Jan-17 14:21 37.884274 -122.371105 46 4378ft 137kts
08-Jan-17 14:22 37.879918 -122.341111 123 3727ft 148kts
08-Jan-17 14:23 37.864790 -122.311904 123 3100ft 143kts
08-Jan-17 14:24 37.849767 -122.282894 123 3065ft 151kts
08-Jan-17 14:25 37.834522 -122.253452 123 3064ft 152kts
08-Jan-17 14:26 37.812837 -122.235978 202 3081ft 149kts
08-Jan-17 14:27 37.789751 -122.257245 212 3067ft 142kts
08-Jan-17 14:28 37.764450 -122.275812 208 2984ft 122kts
08-Jan-17 14:29 37.738048 -122.293721 208 2463ft 134kts
08-Jan-17 14:30 37.712488 -122.310736 208 1898ft 133kts
08-Jan-17 14:31 37.687220 -122.327497 208 1366ft 133kts
08-Jan-17 14:32 37.662526 -122.343865 208 804ft 128kts
08-Jan-17 14:33 37.639629 -122.359007 207 309ft 92kts
08-Jan-17 14:34 37.623500 -122.369739 207 8ft 62kts
08-Jan-17 14:35 37.627046 -122.370244 207 7ft 0kts
08-Jan-17 14:36 37.621926 -122.373806 207 13ft 59kts
08-Jan-17 14:37 37.623368 -122.376885 300 18ft 13kts
08-Jan-17 14:44 37.627658 -122.383108 300 13ft 0kts

Navigation Log

Ident Type
Flight plan parsing failed, navigation log unavailable